sensor_id;sensor_type;location;lat;lon;timestamp;P1;durP1;ratioP1;P2;durP2;ratioP2
10029;SDS011;5055;52.054;8.524;2023-08-30T00:01:05;0.20;;;0.20;;
10029;SDS011;5055;52.054;8.524;2023-08-30T00:03:35;0.30;;;0.30;;
10029;SDS011;5055;52.054;8.524;2023-08-30T00:06:04;0.20;;;0.20;;
10029;SDS011;5055;52.054;8.524;2023-08-30T00:08:33;0.27;;;0.27;;
10029;SDS011;5055;52.054;8.524;2023-08-30T00:11:02;0.30;;;0.30;;
10029;SDS011;5055;52.054;8.524;2023-08-30T00:13:31;0.20;;;0.20;;
10029;SDS011;5055;52.054;8.524;2023-08-30T00:16:00;0.30;;;0.30;;
10029;SDS011;5055;52.054;8.524;2023-08-30T00:18:31;0.30;;;0.30;;
10029;SDS011;5055;52.054;8.524;2023-08-30T00:20:59;0.30;;;0.30;;
10029;SDS011;5055;52.054;8.524;2023-08-30T00:23:28;0.20;;;0.20;;
10029;SDS011;5055;52.054;8.524;2023-08-30T00:25:56;0.30;;;0.30;;
10029;SDS011;5055;52.054;8.524;2023-08-30T00:28:24;0.20;;;0.20;;
10029;SDS011;5055;52.054;8.524;2023-08-30T00:30:53;0.30;;;0.30;;
10029;SDS011;5055;52.054;8.524;2023-08-30T00:33:22;0.30;;;0.30;;
10029;SDS011;5055;52.054;8.524;2023-08-30T00:36:01;0.30;;;0.30;;
10029;SDS011;5055;52.054;8.524;2023-08-30T00:38:30;0.30;;;0.30;;
10029;SDS011;5055;52.054;8.524;2023-08-30T00:41:01;0.30;;;0.30;;
10029;SDS011;5055;52.054;8.524;2023-08-30T00:43:30;0.20;;;0.20;;
10029;SDS011;5055;52.054;8.524;2023-08-30T00:45:58;0.30;;;0.30;;
10029;SDS011;5055;52.054;8.524;2023-08-30T00:48:27;0.30;;;0.30;;
10029;SDS011;5055;52.054;8.524;2023-08-30T00:50:55;0.30;;;0.30;;
10029;SDS011;5055;52.054;8.524;2023-08-30T00:53:25;0.37;;;0.37;;
10029;SDS011;5055;52.054;8.524;2023-08-30T00:55:54;0.30;;;0.30;;
10029;SDS011;5055;52.054;8.524;2023-08-30T00:58:23;0.30;;;0.30;;
10029;SDS011;5055;52.054;8.524;2023-08-30T01:00:53;0.30;;;0.30;;
10029;SDS011;5055;52.054;8.524;2023-08-30T01:03:22;0.20;;;0.20;;
10029;SDS011;5055;52.054;8.524;2023-08-30T01:05:50;0.30;;;0.30;;
10029;SDS011;5055;52.054;8.524;2023-08-30T01:08:19;0.40;;;0.40;;
10029;SDS011;5055;52.054;8.524;2023-08-30T01:10:53;0.30;;;0.30;;
10029;SDS011;5055;52.054;8.524;2023-08-30T01:13:28;0.30;;;0.30;;
10029;SDS011;5055;52.054;8.524;2023-08-30T01:16:00;0.30;;;0.30;;
10029;SDS011;5055;52.054;8.524;2023-08-30T01:18:31;0.40;;;0.40;;
10029;SDS011;5055;52.054;8.524;2023-08-30T01:21:02;0.30;;;0.30;;
10029;SDS011;5055;52.054;8.524;2023-08-30T01:23:36;0.20;;;0.20;;
10029;SDS011;5055;52.054;8.524;2023-08-30T01:26:20;0.23;;;0.23;;
10029;SDS011;5055;52.054;8.524;2023-08-30T01:28:55;0.30;;;0.30;;
10029;SDS011;5055;52.054;8.524;2023-08-30T01:31:27;0.20;;;0.20;;
10029;SDS011;5055;52.054;8.524;2023-08-30T01:33:56;0.30;;;0.30;;
10029;SDS011;5055;52.054;8.524;2023-08-30T01:36:25;0.30;;;0.30;;
10029;SDS011;5055;52.054;8.524;2023-08-30T01:38:55;0.20;;;0.20;;
10029;SDS011;5055;52.054;8.524;2023-08-30T01:41:25;0.30;;;0.30;;
10029;SDS011;5055;52.054;8.524;2023-08-30T01:43:55;0.30;;;0.30;;
10029;SDS011;5055;52.054;8.524;2023-08-30T01:46:25;0.20;;;0.20;;
10029;SDS011;5055;52.054;8.524;2023-08-30T01:48:55;0.30;;;0.30;;
10029;SDS011;5055;52.054;8.524;2023-08-30T01:51:24;0.30;;;0.30;;
10029;SDS011;5055;52.054;8.524;2023-08-30T01:53:52;0.30;;;0.30;;
10029;SDS011;5055;52.054;8.524;2023-08-30T01:56:23;0.40;;;0.40;;
10029;SDS011;5055;52.054;8.524;2023-08-30T01:58:51;0.30;;;0.30;;
10029;SDS011;5055;52.054;8.524;2023-08-30T02:01:21;0.30;;;0.30;;
10029;SDS011;5055;52.054;8.524;2023-08-30T02:03:50;0.30;;;0.30;;
10029;SDS011;5055;52.054;8.524;2023-08-30T02:06:21;0.30;;;0.30;;
10029;SDS011;5055;52.054;8.524;2023-08-30T02:08:54;0.20;;;0.20;;
10029;SDS011;5055;52.054;8.524;2023-08-30T02:11:27;0.30;;;0.30;;
10029;SDS011;5055;52.054;8.524;2023-08-30T02:13:58;0.20;;;0.20;;
10029;SDS011;5055;52.054;8.524;2023-08-30T02:16:29;0.30;;;0.30;;
10029;SDS011;5055;52.054;8.524;2023-08-30T02:18:58;0.30;;;0.30;;
10029;SDS011;5055;52.054;8.524;2023-08-30T02:21:27;0.30;;;0.30;;
10029;SDS011;5055;52.054;8.524;2023-08-30T02:23:56;0.30;;;0.30;;
10029;SDS011;5055;52.054;8.524;2023-08-30T02:26:24;0.30;;;0.30;;
10029;SDS011;5055;52.054;8.524;2023-08-30T02:28:52;0.20;;;0.20;;
10029;SDS011;5055;52.054;8.524;2023-08-30T02:31:24;0.30;;;0.30;;
10029;SDS011;5055;52.054;8.524;2023-08-30T02:33:56;0.30;;;0.30;;
10029;SDS011;5055;52.054;8.524;2023-08-30T02:36:24;0.30;;;0.30;;
10029;SDS011;5055;52.054;8.524;2023-08-30T02:38:53;0.30;;;0.30;;
10029;SDS011;5055;52.054;8.524;2023-08-30T02:41:35;0.30;;;0.30;;
10029;SDS011;5055;52.054;8.524;2023-08-30T02:44:42;0.27;;;0.27;;
10029;SDS011;5055;52.054;8.524;2023-08-30T02:47:18;0.40;;;0.40;;
10029;SDS011;5055;52.054;8.524;2023-08-30T02:49:48;0.30;;;0.30;;
10029;SDS011;5055;52.054;8.524;2023-08-30T02:52:17;0.20;;;0.20;;
10029;SDS011;5055;52.054;8.524;2023-08-30T02:54:45;0.20;;;0.20;;
10029;SDS011;5055;52.054;8.524;2023-08-30T02:57:13;0.30;;;0.30;;
10029;SDS011;5055;52.054;8.524;2023-08-30T02:59:42;0.30;;;0.30;;
10029;SDS011;5055;52.054;8.524;2023-08-30T03:02:10;0.30;;;0.30;;
10029;SDS011;5055;52.054;8.524;2023-08-30T03:04:39;0.20;;;0.20;;
10029;SDS011;5055;52.054;8.524;2023-08-30T03:07:08;0.20;;;0.20;;
10029;SDS011;5055;52.054;8.524;2023-08-30T03:09:37;0.20;;;0.20;;
10029;SDS011;5055;52.054;8.524;2023-08-30T03:12:07;0.20;;;0.20;;
10029;SDS011;5055;52.054;8.524;2023-08-30T03:14:35;0.20;;;0.20;;
10029;SDS011;5055;52.054;8.524;2023-08-30T03:17:03;0.20;;;0.20;;
10029;SDS011;5055;52.054;8.524;2023-08-30T03:19:32;0.20;;;0.20;;
10029;SDS011;5055;52.054;8.524;2023-08-30T03:22:00;0.20;;;0.20;;
10029;SDS011;5055;52.054;8.524;2023-08-30T03:24:30;0.30;;;0.30;;
10029;SDS011;5055;52.054;8.524;2023-08-30T03:26:58;0.20;;;0.20;;
10029;SDS011;5055;52.054;8.524;2023-08-30T03:29:27;0.20;;;0.20;;
10029;SDS011;5055;52.054;8.524;2023-08-30T03:31:56;0.20;;;0.20;;
10029;SDS011;5055;52.054;8.524;2023-08-30T03:34:24;0.30;;;0.30;;
10029;SDS011;5055;52.054;8.524;2023-08-30T03:36:53;0.20;;;0.20;;
10029;SDS011;5055;52.054;8.524;2023-08-30T03:39:21;0.27;;;0.27;;
10029;SDS011;5055;52.054;8.524;2023-08-30T03:41:52;0.30;;;0.30;;
10029;SDS011;5055;52.054;8.524;2023-08-30T03:44:44;0.30;;;0.30;;
10029;SDS011;5055;52.054;8.524;2023-08-30T03:47:35;0.20;;;0.20;;
10029;SDS011;5055;52.054;8.524;2023-08-30T03:50:04;0.20;;;0.20;;
10029;SDS011;5055;52.054;8.524;2023-08-30T03:52:34;0.30;;;0.30;;
10029;SDS011;5055;52.054;8.524;2023-08-30T03:55:03;0.20;;;0.20;;
10029;SDS011;5055;52.054;8.524;2023-08-30T03:57:33;0.30;;;0.30;;
10029;SDS011;5055;52.054;8.524;2023-08-30T04:00:02;0.30;;;0.30;;
10029;SDS011;5055;52.054;8.524;2023-08-30T04:02:31;0.27;;;0.27;;
10029;SDS011;5055;52.054;8.524;2023-08-30T04:05:00;0.30;;;0.30;;
10029;SDS011;5055;52.054;8.524;2023-08-30T04:07:30;0.20;;;0.20;;
10029;SDS011;5055;52.054;8.524;2023-08-30T04:09:58;0.20;;;0.20;;
10029;SDS011;5055;52.054;8.524;2023-08-30T04:12:28;0.30;;;0.30;;
10029;SDS011;5055;52.054;8.524;2023-08-30T04:14:58;0.20;;;0.20;;
10029;SDS011;5055;52.054;8.524;2023-08-30T04:17:27;0.20;;;0.20;;
10029;SDS011;5055;52.054;8.524;2023-08-30T04:19:55;0.30;;;0.30;;
10029;SDS011;5055;52.054;8.524;2023-08-30T04:22:24;0.30;;;0.30;;
10029;SDS011;5055;52.054;8.524;2023-08-30T04:24:52;0.30;;;0.30;;
10029;SDS011;5055;52.054;8.524;2023-08-30T04:27:21;0.30;;;0.30;;
10029;SDS011;5055;52.054;8.524;2023-08-30T04:29:49;0.20;;;0.20;;
10029;SDS011;5055;52.054;8.524;2023-08-30T04:32:19;0.20;;;0.20;;
10029;SDS011;5055;52.054;8.524;2023-08-30T04:34:47;0.30;;;0.30;;
10029;SDS011;5055;52.054;8.524;2023-08-30T04:37:16;0.23;;;0.23;;
10029;SDS011;5055;52.054;8.524;2023-08-30T04:39:46;0.20;;;0.20;;
10029;SDS011;5055;52.054;8.524;2023-08-30T04:42:15;0.30;;;0.30;;
10029;SDS011;5055;52.054;8.524;2023-08-30T04:44:43;0.30;;;0.30;;
10029;SDS011;5055;52.054;8.524;2023-08-30T04:47:12;0.30;;;0.30;;
10029;SDS011;5055;52.054;8.524;2023-08-30T04:49:42;0.30;;;0.30;;
10029;SDS011;5055;52.054;8.524;2023-08-30T04:52:10;0.30;;;0.30;;
10029;SDS011;5055;52.054;8.524;2023-08-30T04:54:39;0.30;;;0.30;;
10029;SDS011;5055;52.054;8.524;2023-08-30T04:57:08;0.30;;;0.30;;
10029;SDS011;5055;52.054;8.524;2023-08-30T04:59:44;0.30;;;0.30;;
10029;SDS011;5055;52.054;8.524;2023-08-30T05:02:13;0.30;;;0.30;;
10029;SDS011;5055;52.054;8.524;2023-08-30T05:04:43;0.30;;;0.30;;
10029;SDS011;5055;52.054;8.524;2023-08-30T05:07:11;0.20;;;0.20;;
10029;SDS011;5055;52.054;8.524;2023-08-30T05:09:40;0.30;;;0.30;;
10029;SDS011;5055;52.054;8.524;2023-08-30T05:12:08;0.30;;;0.30;;
10029;SDS011;5055;52.054;8.524;2023-08-30T05:14:37;0.20;;;0.20;;
10029;SDS011;5055;52.054;8.524;2023-08-30T05:17:07;0.30;;;0.30;;
10029;SDS011;5055;52.054;8.524;2023-08-30T05:19:35;0.30;;;0.30;;
10029;SDS011;5055;52.054;8.524;2023-08-30T05:22:05;0.20;;;0.20;;
10029;SDS011;5055;52.054;8.524;2023-08-30T05:24:33;0.30;;;0.30;;
10029;SDS011;5055;52.054;8.524;2023-08-30T05:27:02;0.30;;;0.30;;
10029;SDS011;5055;52.054;8.524;2023-08-30T05:29:31;0.30;;;0.30;;
10029;SDS011;5055;52.054;8.524;2023-08-30T05:31:59;0.30;;;0.30;;
10029;SDS011;5055;52.054;8.524;2023-08-30T05:34:27;0.30;;;0.30;;
10029;SDS011;5055;52.054;8.524;2023-08-30T05:36:56;0.20;;;0.20;;
10029;SDS011;5055;52.054;8.524;2023-08-30T05:39:25;0.30;;;0.30;;
10029;SDS011;5055;52.054;8.524;2023-08-30T05:41:54;0.30;;;0.30;;
10029;SDS011;5055;52.054;8.524;2023-08-30T05:44:22;0.20;;;0.20;;
10029;SDS011;5055;52.054;8.524;2023-08-30T05:46:50;0.20;;;0.20;;
10029;SDS011;5055;52.054;8.524;2023-08-30T05:49:19;0.30;;;0.30;;
10029;SDS011;5055;52.054;8.524;2023-08-30T05:51:47;0.23;;;0.23;;
10029;SDS011;5055;52.054;8.524;2023-08-30T05:54:16;0.20;;;0.20;;
10029;SDS011;5055;52.054;8.524;2023-08-30T05:56:45;0.20;;;0.20;;
10029;SDS011;5055;52.054;8.524;2023-08-30T05:59:14;0.20;;;0.20;;
10029;SDS011;5055;52.054;8.524;2023-08-30T06:01:43;0.20;;;0.20;;
10029;SDS011;5055;52.054;8.524;2023-08-30T06:04:12;0.27;;;0.27;;
10029;SDS011;5055;52.054;8.524;2023-08-30T06:06:40;0.30;;;0.30;;
10029;SDS011;5055;52.054;8.524;2023-08-30T06:09:09;0.30;;;0.30;;
10029;SDS011;5055;52.054;8.524;2023-08-30T06:11:38;0.30;;;0.30;;
10029;SDS011;5055;52.054;8.524;2023-08-30T06:14:08;0.20;;;0.20;;
10029;SDS011;5055;52.054;8.524;2023-08-30T06:16:36;0.20;;;0.20;;
10029;SDS011;5055;52.054;8.524;2023-08-30T06:19:05;0.20;;;0.20;;
10029;SDS011;5055;52.054;8.524;2023-08-30T06:21:33;0.20;;;0.20;;
10029;SDS011;5055;52.054;8.524;2023-08-30T06:24:02;0.30;;;0.30;;
10029;SDS011;5055;52.054;8.524;2023-08-30T06:26:31;0.20;;;0.20;;
10029;SDS011;5055;52.054;8.524;2023-08-30T06:28:59;0.20;;;0.20;;
10029;SDS011;5055;52.054;8.524;2023-08-30T06:31:32;0.27;;;0.27;;
10029;SDS011;5055;52.054;8.524;2023-08-30T06:34:00;0.20;;;0.20;;
10029;SDS011;5055;52.054;8.524;2023-08-30T06:36:32;0.20;;;0.20;;
10029;SDS011;5055;52.054;8.524;2023-08-30T06:39:00;0.30;;;0.30;;
10029;SDS011;5055;52.054;8.524;2023-08-30T06:41:29;0.20;;;0.20;;
10029;SDS011;5055;52.054;8.524;2023-08-30T06:43:57;0.20;;;0.20;;
10029;SDS011;5055;52.054;8.524;2023-08-30T06:46:26;0.20;;;0.20;;
10029;SDS011;5055;52.054;8.524;2023-08-30T06:48:56;0.30;;;0.30;;
10029;SDS011;5055;52.054;8.524;2023-08-30T06:51:24;0.20;;;0.20;;
10029;SDS011;5055;52.054;8.524;2023-08-30T06:53:53;0.20;;;0.20;;
10029;SDS011;5055;52.054;8.524;2023-08-30T06:56:27;0.20;;;0.20;;
10029;SDS011;5055;52.054;8.524;2023-08-30T06:58:55;0.20;;;0.20;;
10029;SDS011;5055;52.054;8.524;2023-08-30T07:01:23;0.20;;;0.20;;
10029;SDS011;5055;52.054;8.524;2023-08-30T07:03:52;0.20;;;0.20;;
10029;SDS011;5055;52.054;8.524;2023-08-30T07:06:22;0.20;;;0.20;;
10029;SDS011;5055;52.054;8.524;2023-08-30T07:08:50;0.20;;;0.20;;
10029;SDS011;5055;52.054;8.524;2023-08-30T07:11:19;0.20;;;0.20;;
10029;SDS011;5055;52.054;8.524;2023-08-30T07:14:02;0.20;;;0.20;;
10029;SDS011;5055;52.054;8.524;2023-08-30T07:16:31;0.20;;;0.20;;
10029;SDS011;5055;52.054;8.524;2023-08-30T07:18:59;0.20;;;0.20;;
10029;SDS011;5055;52.054;8.524;2023-08-30T07:21:30;0.20;;;0.20;;
10029;SDS011;5055;52.054;8.524;2023-08-30T07:23:59;0.20;;;0.20;;
10029;SDS011;5055;52.054;8.524;2023-08-30T07:26:27;0.20;;;0.20;;
10029;SDS011;5055;52.054;8.524;2023-08-30T07:28:56;0.20;;;0.20;;
10029;SDS011;5055;52.054;8.524;2023-08-30T07:31:24;0.20;;;0.20;;
10029;SDS011;5055;52.054;8.524;2023-08-30T07:33:53;0.20;;;0.20;;
10029;SDS011;5055;52.054;8.524;2023-08-30T07:36:22;0.20;;;0.20;;
10029;SDS011;5055;52.054;8.524;2023-08-30T07:39:09;0.20;;;0.20;;
10029;SDS011;5055;52.054;8.524;2023-08-30T07:41:39;0.17;;;0.17;;
10029;SDS011;5055;52.054;8.524;2023-08-30T07:44:09;0.20;;;0.20;;
10029;SDS011;5055;52.054;8.524;2023-08-30T07:46:39;0.10;;;0.10;;
10029;SDS011;5055;52.054;8.524;2023-08-30T07:49:07;0.20;;;0.20;;
10029;SDS011;5055;52.054;8.524;2023-08-30T07:51:35;0.20;;;0.20;;
10029;SDS011;5055;52.054;8.524;2023-08-30T07:54:04;0.20;;;0.20;;
10029;SDS011;5055;52.054;8.524;2023-08-30T07:56:34;0.20;;;0.20;;
10029;SDS011;5055;52.054;8.524;2023-08-30T07:59:02;0.17;;;0.17;;
10029;SDS011;5055;52.054;8.524;2023-08-30T08:01:31;0.20;;;0.20;;
10029;SDS011;5055;52.054;8.524;2023-08-30T08:03:59;0.20;;;0.20;;
10029;SDS011;5055;52.054;8.524;2023-08-30T08:06:33;0.20;;;0.20;;
10029;SDS011;5055;52.054;8.524;2023-08-30T08:09:03;0.10;;;0.10;;
10029;SDS011;5055;52.054;8.524;2023-08-30T08:11:35;0.20;;;0.20;;
10029;SDS011;5055;52.054;8.524;2023-08-30T08:14:04;0.20;;;0.20;;
10029;SDS011;5055;52.054;8.524;2023-08-30T08:16:32;0.20;;;0.20;;
10029;SDS011;5055;52.054;8.524;2023-08-30T08:19:01;0.20;;;0.20;;
10029;SDS011;5055;52.054;8.524;2023-08-30T08:21:30;0.10;;;0.10;;
10029;SDS011;5055;52.054;8.524;2023-08-30T08:23:59;0.20;;;0.20;;
10029;SDS011;5055;52.054;8.524;2023-08-30T08:26:28;0.10;;;0.10;;
10029;SDS011;5055;52.054;8.524;2023-08-30T08:28:58;0.20;;;0.20;;
10029;SDS011;5055;52.054;8.524;2023-08-30T08:31:26;0.20;;;0.20;;
10029;SDS011;5055;52.054;8.524;2023-08-30T08:34:05;0.10;;;0.10;;
10029;SDS011;5055;52.054;8.524;2023-08-30T08:36:36;0.10;;;0.10;;
10029;SDS011;5055;52.054;8.524;2023-08-30T08:39:05;0.20;;;0.20;;
10029;SDS011;5055;52.054;8.524;2023-08-30T08:41:35;0.20;;;0.20;;
10029;SDS011;5055;52.054;8.524;2023-08-30T08:44:08;0.13;;;0.13;;
10029;SDS011;5055;52.054;8.524;2023-08-30T08:46:38;0.10;;;0.10;;
10029;SDS011;5055;52.054;8.524;2023-08-30T08:49:08;0.10;;;0.10;;
10029;SDS011;5055;52.054;8.524;2023-08-30T08:51:40;0.20;;;0.20;;
10029;SDS011;5055;52.054;8.524;2023-08-30T08:54:10;0.20;;;0.20;;
10029;SDS011;5055;52.054;8.524;2023-08-30T08:56:39;0.20;;;0.20;;
10029;SDS011;5055;52.054;8.524;2023-08-30T08:59:10;0.10;;;0.10;;
10029;SDS011;5055;52.054;8.524;2023-08-30T09:01:38;0.20;;;0.20;;
10029;SDS011;5055;52.054;8.524;2023-08-30T09:04:07;0.17;;;0.17;;
10029;SDS011;5055;52.054;8.524;2023-08-30T09:06:40;0.20;;;0.20;;
10029;SDS011;5055;52.054;8.524;2023-08-30T09:09:10;0.10;;;0.10;;
10029;SDS011;5055;52.054;8.524;2023-08-30T09:11:39;0.10;;;0.10;;
10029;SDS011;5055;52.054;8.524;2023-08-30T09:14:11;0.10;;;0.10;;
10029;SDS011;5055;52.054;8.524;2023-08-30T09:16:40;0.10;;;0.10;;
10029;SDS011;5055;52.054;8.524;2023-08-30T09:19:08;0.10;;;0.10;;
10029;SDS011;5055;52.054;8.524;2023-08-30T09:21:37;0.20;;;0.20;;
10029;SDS011;5055;52.054;8.524;2023-08-30T09:24:06;0.20;;;0.20;;
10029;SDS011;5055;52.054;8.524;2023-08-30T09:26:35;0.10;;;0.10;;
10029;SDS011;5055;52.054;8.524;2023-08-30T09:29:05;0.10;;;0.10;;
10029;SDS011;5055;52.054;8.524;2023-08-30T09:31:36;0.10;;;0.10;;
10029;SDS011;5055;52.054;8.524;2023-08-30T09:34:09;0.10;;;0.10;;
10029;SDS011;5055;52.054;8.524;2023-08-30T09:36:38;0.10;;;0.10;;
10029;SDS011;5055;52.054;8.524;2023-08-30T09:39:08;0.10;;;0.10;;
10029;SDS011;5055;52.054;8.524;2023-08-30T09:41:37;0.17;;;0.17;;
10029;SDS011;5055;52.054;8.524;2023-08-30T09:44:09;0.10;;;0.10;;
10029;SDS011;5055;52.054;8.524;2023-08-30T09:46:42;0.10;;;0.10;;
10029;SDS011;5055;52.054;8.524;2023-08-30T09:49:15;0.20;;;0.20;;
10029;SDS011;5055;52.054;8.524;2023-08-30T09:51:46;0.10;;;0.10;;
10029;SDS011;5055;52.054;8.524;2023-08-30T09:54:16;0.10;;;0.10;;
10029;SDS011;5055;52.054;8.524;2023-08-30T09:57:04;0.10;;;0.10;;
10029;SDS011;5055;52.054;8.524;2023-08-30T09:59:33;0.10;;;0.10;;
10029;SDS011;5055;52.054;8.524;2023-08-30T10:02:03;0.10;;;0.10;;
10029;SDS011;5055;52.054;8.524;2023-08-30T10:04:32;0.10;;;0.10;;
10029;SDS011;5055;52.054;8.524;2023-08-30T10:07:05;0.10;;;0.10;;
10029;SDS011;5055;52.054;8.524;2023-08-30T10:09:35;0.10;;;0.10;;
10029;SDS011;5055;52.054;8.524;2023-08-30T10:12:26;0.10;;;0.10;;
10029;SDS011;5055;52.054;8.524;2023-08-30T10:14:56;0.10;;;0.10;;
10029;SDS011;5055;52.054;8.524;2023-08-30T10:17:30;0.10;;;0.10;;
10029;SDS011;5055;52.054;8.524;2023-08-30T10:20:01;0.10;;;0.10;;
10029;SDS011;5055;52.054;8.524;2023-08-30T10:22:34;0.10;;;0.10;;
10029;SDS011;5055;52.054;8.524;2023-08-30T10:25:05;0.10;;;0.10;;
10029;SDS011;5055;52.054;8.524;2023-08-30T10:27:38;0.10;;;0.10;;
10029;SDS011;5055;52.054;8.524;2023-08-30T10:30:10;0.10;;;0.10;;
10029;SDS011;5055;52.054;8.524;2023-08-30T10:32:41;0.10;;;0.10;;
10029;SDS011;5055;52.054;8.524;2023-08-30T10:35:10;0.10;;;0.10;;
10029;SDS011;5055;52.054;8.524;2023-08-30T10:37:39;0.10;;;0.10;;
10029;SDS011;5055;52.054;8.524;2023-08-30T10:40:08;0.10;;;0.10;;
10029;SDS011;5055;52.054;8.524;2023-08-30T10:42:37;0.20;;;0.20;;
10029;SDS011;5055;52.054;8.524;2023-08-30T10:45:06;0.10;;;0.10;;
10029;SDS011;5055;52.054;8.524;2023-08-30T10:47:44;0.10;;;0.10;;
10029;SDS011;5055;52.054;8.524;2023-08-30T10:50:13;0.20;;;0.20;;
10029;SDS011;5055;52.054;8.524;2023-08-30T10:52:43;0.10;;;0.10;;
10029;SDS011;5055;52.054;8.524;2023-08-30T10:55:22;0.10;;;0.10;;
10029;SDS011;5055;52.054;8.524;2023-08-30T10:57:57;0.10;;;0.10;;
10029;SDS011;5055;52.054;8.524;2023-08-30T11:00:28;0.10;;;0.10;;
10029;SDS011;5055;52.054;8.524;2023-08-30T11:02:59;0.10;;;0.10;;
10029;SDS011;5055;52.054;8.524;2023-08-30T11:05:29;0.17;;;0.17;;
10029;SDS011;5055;52.054;8.524;2023-08-30T11:07:57;0.10;;;0.10;;
10029;SDS011;5055;52.054;8.524;2023-08-30T11:10:26;0.10;;;0.10;;
10029;SDS011;5055;52.054;8.524;2023-08-30T11:12:55;0.10;;;0.10;;
10029;SDS011;5055;52.054;8.524;2023-08-30T11:15:24;0.10;;;0.10;;
10029;SDS011;5055;52.054;8.524;2023-08-30T11:18:03;0.10;;;0.10;;
10029;SDS011;5055;52.054;8.524;2023-08-30T11:20:33;0.10;;;0.10;;
10029;SDS011;5055;52.054;8.524;2023-08-30T11:23:02;0.10;;;0.10;;
10029;SDS011;5055;52.054;8.524;2023-08-30T11:25:31;0.10;;;0.10;;
10029;SDS011;5055;52.054;8.524;2023-08-30T11:28:03;0.10;;;0.10;;
10029;SDS011;5055;52.054;8.524;2023-08-30T11:30:32;0.10;;;0.10;;
10029;SDS011;5055;52.054;8.524;2023-08-30T11:33:02;0.17;;;0.17;;
10029;SDS011;5055;52.054;8.524;2023-08-30T11:35:32;0.10;;;0.10;;
10029;SDS011;5055;52.054;8.524;2023-08-30T11:38:01;0.10;;;0.10;;
10029;SDS011;5055;52.054;8.524;2023-08-30T11:40:32;0.10;;;0.10;;
10029;SDS011;5055;52.054;8.524;2023-08-30T11:43:00;0.10;;;0.10;;
10029;SDS011;5055;52.054;8.524;2023-08-30T11:45:31;0.10;;;0.10;;
10029;SDS011;5055;52.054;8.524;2023-08-30T11:48:02;0.20;;;0.20;;
10029;SDS011;5055;52.054;8.524;2023-08-30T11:50:33;0.13;;;0.13;;
10029;SDS011;5055;52.054;8.524;2023-08-30T11:53:13;0.10;;;0.10;;
10029;SDS011;5055;52.054;8.524;2023-08-30T11:55:42;0.10;;;0.10;;
10029;SDS011;5055;52.054;8.524;2023-08-30T11:58:11;0.10;;;0.10;;
10029;SDS011;5055;52.054;8.524;2023-08-30T12:00:39;0.20;;;0.20;;
10029;SDS011;5055;52.054;8.524;2023-08-30T12:03:12;0.10;;;0.10;;
10029;SDS011;5055;52.054;8.524;2023-08-30T12:05:46;0.20;;;0.20;;
10029;SDS011;5055;52.054;8.524;2023-08-30T12:08:19;0.10;;;0.10;;
10029;SDS011;5055;52.054;8.524;2023-08-30T12:10:48;0.10;;;0.10;;
10029;SDS011;5055;52.054;8.524;2023-08-30T12:13:23;0.10;;;0.10;;
10029;SDS011;5055;52.054;8.524;2023-08-30T12:15:51;0.10;;;0.10;;
10029;SDS011;5055;52.054;8.524;2023-08-30T12:18:22;0.10;;;0.10;;
10029;SDS011;5055;52.054;8.524;2023-08-30T12:20:57;0.20;;;0.20;;
10029;SDS011;5055;52.054;8.524;2023-08-30T12:23:27;0.20;;;0.20;;
10029;SDS011;5055;52.054;8.524;2023-08-30T12:25:57;0.13;;;0.13;;
10029;SDS011;5055;52.054;8.524;2023-08-30T12:28:30;0.10;;;0.10;;
10029;SDS011;5055;52.054;8.524;2023-08-30T12:31:01;0.20;;;0.20;;
10029;SDS011;5055;52.054;8.524;2023-08-30T12:33:32;0.20;;;0.20;;
10029;SDS011;5055;52.054;8.524;2023-08-30T12:36:01;0.10;;;0.10;;
10029;SDS011;5055;52.054;8.524;2023-08-30T12:38:30;0.10;;;0.10;;
10029;SDS011;5055;52.054;8.524;2023-08-30T12:41:00;0.10;;;0.10;;
10029;SDS011;5055;52.054;8.524;2023-08-30T12:43:29;0.10;;;0.10;;
10029;SDS011;5055;52.054;8.524;2023-08-30T12:45:57;0.20;;;0.20;;
10029;SDS011;5055;52.054;8.524;2023-08-30T12:48:25;0.10;;;0.10;;
10029;SDS011;5055;52.054;8.524;2023-08-30T12:50:55;0.10;;;0.10;;
10029;SDS011;5055;52.054;8.524;2023-08-30T12:53:24;0.20;;;0.20;;
10029;SDS011;5055;52.054;8.524;2023-08-30T12:55:52;0.10;;;0.10;;
10029;SDS011;5055;52.054;8.524;2023-08-30T12:58:21;0.20;;;0.20;;
10029;SDS011;5055;52.054;8.524;2023-08-30T13:00:50;0.20;;;0.20;;
10029;SDS011;5055;52.054;8.524;2023-08-30T13:03:18;0.20;;;0.20;;
10029;SDS011;5055;52.054;8.524;2023-08-30T13:05:47;0.20;;;0.20;;
10029;SDS011;5055;52.054;8.524;2023-08-30T13:08:17;0.20;;;0.20;;
10029;SDS011;5055;52.054;8.524;2023-08-30T13:10:45;0.17;;;0.17;;
10029;SDS011;5055;52.054;8.524;2023-08-30T13:13:14;0.20;;;0.20;;
10029;SDS011;5055;52.054;8.524;2023-08-30T13:15:42;0.20;;;0.20;;
10029;SDS011;5055;52.054;8.524;2023-08-30T13:18:11;0.20;;;0.20;;
10029;SDS011;5055;52.054;8.524;2023-08-30T13:20:39;0.17;;;0.17;;
10029;SDS011;5055;52.054;8.524;2023-08-30T13:23:08;0.20;;;0.20;;
10029;SDS011;5055;52.054;8.524;2023-08-30T13:25:40;0.20;;;0.20;;
10029;SDS011;5055;52.054;8.524;2023-08-30T13:28:08;0.10;;;0.10;;
10029;SDS011;5055;52.054;8.524;2023-08-30T13:30:43;0.10;;;0.10;;
10029;SDS011;5055;52.054;8.524;2023-08-30T13:33:12;0.20;;;0.20;;
10029;SDS011;5055;52.054;8.524;2023-08-30T13:35:41;0.10;;;0.10;;
10029;SDS011;5055;52.054;8.524;2023-08-30T13:38:09;0.20;;;0.20;;
10029;SDS011;5055;52.054;8.524;2023-08-30T13:40:38;0.20;;;0.20;;
10029;SDS011;5055;52.054;8.524;2023-08-30T13:43:07;0.10;;;0.10;;
10029;SDS011;5055;52.054;8.524;2023-08-30T13:45:37;0.20;;;0.20;;
10029;SDS011;5055;52.054;8.524;2023-08-30T13:48:05;0.20;;;0.20;;
10029;SDS011;5055;52.054;8.524;2023-08-30T13:50:34;0.20;;;0.20;;
10029;SDS011;5055;52.054;8.524;2023-08-30T13:53:09;0.13;;;0.13;;
10029;SDS011;5055;52.054;8.524;2023-08-30T13:55:39;0.20;;;0.20;;
10029;SDS011;5055;52.054;8.524;2023-08-30T13:58:12;0.20;;;0.20;;
10029;SDS011;5055;52.054;8.524;2023-08-30T14:00:40;0.20;;;0.20;;
10029;SDS011;5055;52.054;8.524;2023-08-30T14:03:08;0.20;;;0.20;;
10029;SDS011;5055;52.054;8.524;2023-08-30T14:05:39;0.20;;;0.20;;
10029;SDS011;5055;52.054;8.524;2023-08-30T14:08:07;0.20;;;0.20;;
10029;SDS011;5055;52.054;8.524;2023-08-30T14:10:36;0.20;;;0.20;;
10029;SDS011;5055;52.054;8.524;2023-08-30T14:13:06;0.20;;;0.20;;
10029;SDS011;5055;52.054;8.524;2023-08-30T14:15:35;0.20;;;0.20;;
10029;SDS011;5055;52.054;8.524;2023-08-30T14:18:03;0.20;;;0.20;;
10029;SDS011;5055;52.054;8.524;2023-08-30T14:20:32;0.20;;;0.20;;
10029;SDS011;5055;52.054;8.524;2023-08-30T14:23:00;0.20;;;0.20;;
10029;SDS011;5055;52.054;8.524;2023-08-30T14:25:30;0.20;;;0.20;;
10029;SDS011;5055;52.054;8.524;2023-08-30T14:27:58;0.10;;;0.10;;
10029;SDS011;5055;52.054;8.524;2023-08-30T14:30:29;0.10;;;0.10;;
10029;SDS011;5055;52.054;8.524;2023-08-30T14:32:58;0.17;;;0.17;;
10029;SDS011;5055;52.054;8.524;2023-08-30T14:35:27;0.20;;;0.20;;
10029;SDS011;5055;52.054;8.524;2023-08-30T14:37:58;0.20;;;0.20;;
10029;SDS011;5055;52.054;8.524;2023-08-30T14:40:27;0.20;;;0.20;;
10029;SDS011;5055;52.054;8.524;2023-08-30T14:42:55;0.20;;;0.20;;
10029;SDS011;5055;52.054;8.524;2023-08-30T14:45:24;0.13;;;0.13;;
10029;SDS011;5055;52.054;8.524;2023-08-30T14:47:54;0.20;;;0.20;;
10029;SDS011;5055;52.054;8.524;2023-08-30T14:50:25;0.20;;;0.20;;
10029;SDS011;5055;52.054;8.524;2023-08-30T14:52:56;0.20;;;0.20;;
10029;SDS011;5055;52.054;8.524;2023-08-30T14:55:25;0.20;;;0.20;;
10029;SDS011;5055;52.054;8.524;2023-08-30T14:57:54;0.10;;;0.10;;
10029;SDS011;5055;52.054;8.524;2023-08-30T15:00:22;0.20;;;0.20;;
10029;SDS011;5055;52.054;8.524;2023-08-30T15:02:51;0.13;;;0.13;;
10029;SDS011;5055;52.054;8.524;2023-08-30T15:05:21;0.20;;;0.20;;
10029;SDS011;5055;52.054;8.524;2023-08-30T15:07:50;0.20;;;0.20;;
10029;SDS011;5055;52.054;8.524;2023-08-30T15:10:19;0.20;;;0.20;;
10029;SDS011;5055;52.054;8.524;2023-08-30T15:12:47;0.17;;;0.17;;
10029;SDS011;5055;52.054;8.524;2023-08-30T15:15:18;0.20;;;0.20;;
10029;SDS011;5055;52.054;8.524;2023-08-30T15:17:47;0.20;;;0.20;;